Time;durP1;ratioP1;P1;durP2;ratioP2;P2;SDS_P1;SDS_P2;PMS_P1;PMS_P2;Temp;Humidity;BMP_temperature;BMP_pressure;BME280_temperature;BME280_humidity;BME280_pressure;Samples;Min_cycle;Max_cycle;Signal;HPM_P1;HPM_P2
2024/01/30 00:01:53;;;;;;;5.25;1.70;;;;;;;;;;5021450;28;20038;-68
2024/01/30 00:04:19;;;;;;;4.00;2.10;;;;;;;;;;5015132;28;20045;-69
2024/01/30 00:06:45;;;;;;;6.78;1.90;;;;;;;;;;5020794;28;20044;-68
2024/01/30 00:09:10;;;;;;;4.10;1.80;;;;;;;;;;5016059;28;20110;-69
2024/01/30 00:11:36;;;;;;;4.55;1.35;;;;;;;;;;5013938;28;20053;-68
2024/01/30 00:14:03;;;;;;;4.55;1.67;;;;;;;;;;5022273;28;20018;-68
2024/01/30 00:16:28;;;;;;;2.10;1.33;;;;;;;;;;5025284;28;20076;-68
2024/01/30 00:18:54;;;;;;;2.75;1.17;;;;;;;;;;5026136;28;20065;-69
2024/01/30 00:21:20;;;;;;;3.90;1.50;;;;;;;;;;5020137;28;20037;-68
2024/01/30 00:23:45;;;;;;;4.93;1.20;;;;;;;;;;5023022;28;20034;-69
2024/01/30 00:26:11;;;;;;;3.42;1.10;;;;;;;;;;5016239;28;20045;-66
2024/01/30 00:28:37;;;;;;;4.03;1.30;;;;;;;;;;5023869;28;20029;-67
2024/01/30 00:31:02;;;;;;;3.85;1.40;;;;;;;;;;5004900;28;20034;-67
2024/01/30 00:33:28;;;;;;;2.80;1.35;;;;;;;;;;5027319;28;20194;-66
2024/01/30 00:35:53;;;;;;;4.15;1.50;;;;;;;;;;5024194;28;20044;-67
2024/01/30 00:38:18;;;;;;;4.05;1.38;;;;;;;;;;5023704;28;20048;-66
2024/01/30 00:40:44;;;;;;;4.00;1.27;;;;;;;;;;5018349;28;20046;-66
2024/01/30 00:43:09;;;;;;;2.05;1.10;;;;;;;;;;5021995;28;20112;-67
2024/01/30 00:45:35;;;;;;;1.90;1.20;;;;;;;;;;5015340;28;20121;-67
2024/01/30 00:48:00;;;;;;;4.03;1.30;;;;;;;;;;5026606;28;20099;-67
2024/01/30 00:50:25;;;;;;;3.83;1.30;;;;;;;;;;5024012;28;20485;-67
2024/01/30 00:52:51;;;;;;;2.65;1.15;;;;;;;;;;5015934;28;20072;-67
2024/01/30 00:55:16;;;;;;;3.03;1.17;;;;;;;;;;5019407;28;20037;-67
2024/01/30 00:57:42;;;;;;;4.40;1.00;;;;;;;;;;5029066;28;20442;-67
2024/01/30 01:00:09;;;;;;;4.70;1.10;;;;;;;;;;5011517;28;20037;-66
2024/01/30 01:02:35;;;;;;;6.07;1.02;;;;;;;;;;5004148;28;20048;-67
2024/01/30 01:05:00;;;;;;;5.88;1.15;;;;;;;;;;5008872;28;20117;-67
2024/01/30 01:07:25;;;;;;;3.60;0.90;;;;;;;;;;5022641;28;20452;-66
2024/01/30 01:09:51;;;;;;;1.58;0.57;;;;;;;;;;5007828;28;20146;-67
2024/01/30 01:12:16;;;;;;;1.67;0.70;;;;;;;;;;5020336;28;20033;-66
2024/01/30 01:14:41;;;;;;;3.53;1.10;;;;;;;;;;5015366;28;20384;-67
2024/01/30 01:17:07;;;;;;;1.58;0.82;;;;;;;;;;5001640;28;20050;-66
2024/01/30 01:19:32;;;;;;;2.20;0.90;;;;;;;;;;5001349;28;20050;-67
2024/01/30 01:21:58;;;;;;;2.10;1.00;;;;;;;;;;5018290;28;20046;-67
2024/01/30 01:24:23;;;;;;;2.58;0.85;;;;;;;;;;5013808;28;20045;-67
2024/01/30 01:26:48;;;;;;;3.85;0.73;;;;;;;;;;5024060;28;20029;-68
2024/01/30 01:29:15;;;;;;;2.05;0.80;;;;;;;;;;5014046;28;20048;-67
2024/01/30 01:31:43;;;;;;;3.80;0.95;;;;;;;;;;5022574;28;20041;-67
2024/01/30 01:34:12;;;;;;;2.80;0.90;;;;;;;;;;5016985;28;20026;-66
2024/01/30 01:36:38;;;;;;;2.95;1.20;;;;;;;;;;5011402;28;20627;-66
2024/01/30 01:39:03;;;;;;;2.80;0.93;;;;;;;;;;5012027;28;20109;-66
2024/01/30 01:41:32;;;;;;;3.10;0.80;;;;;;;;;;5018187;28;20129;-66
2024/01/30 01:43:59;;;;;;;2.67;0.82;;;;;;;;;;5019896;28;20041;-68
2024/01/30 01:46:26;;;;;;;3.58;1.10;;;;;;;;;;4991569;28;20050;-69
2024/01/30 01:48:52;;;;;;;2.85;1.35;;;;;;;;;;5001073;28;20056;-69
2024/01/30 01:51:17;;;;;;;8.50;1.52;;;;;;;;;;5020093;28;20063;-68
2024/01/30 01:53:43;;;;;;;6.13;1.67;;;;;;;;;;5019369;28;20049;-69
2024/01/30 01:56:08;;;;;;;6.13;1.67;;;;;;;;;;4999939;28;20038;-69
2024/01/30 01:58:34;;;;;;;4.22;1.85;;;;;;;;;;5016247;28;20046;-69
2024/01/30 02:00:59;;;;;;;6.93;1.75;;;;;;;;;;5011712;28;20457;-68
2024/01/30 02:03:24;;;;;;;13.40;2.20;;;;;;;;;;5021994;28;20509;-69
2024/01/30 02:05:53;;;;;;;6.93;1.55;;;;;;;;;;5011130;28;20050;-69
2024/01/30 02:08:19;;;;;;;3.92;1.70;;;;;;;;;;5000649;28;20459;-69
2024/01/30 02:10:44;;;;;;;2.60;0.98;;;;;;;;;;5009194;28;20114;-69
2024/01/30 02:13:09;;;;;;;3.05;1.38;;;;;;;;;;5015572;28;20122;-68
2024/01/30 02:15:35;;;;;;;4.38;1.70;;;;;;;;;;5012254;28;20132;-68
2024/01/30 02:18:00;;;;;;;4.28;1.50;;;;;;;;;;5015846;28;20289;-69
2024/01/30 02:20:29;;;;;;;4.00;1.58;;;;;;;;;;5015733;28;20052;-70
2024/01/30 02:22:54;;;;;;;7.22;1.48;;;;;;;;;;5001281;28;20037;-68
2024/01/30 02:25:19;;;;;;;1.63;0.88;;;;;;;;;;5018539;28;20483;-69
2024/01/30 02:27:45;;;;;;;2.00;1.00;;;;;;;;;;5027874;28;20075;-68
2024/01/30 02:30:11;;;;;;;1.83;0.80;;;;;;;;;;5010202;28;20045;-68
2024/01/30 02:32:36;;;;;;;1.45;0.82;;;;;;;;;;5025365;28;20029;-69
2024/01/30 02:35:02;;;;;;;1.40;0.57;;;;;;;;;;4999312;28;20068;-69
2024/01/30 02:37:27;;;;;;;1.60;0.73;;;;;;;;;;5026895;28;20086;-69
2024/01/30 02:39:52;;;;;;;1.17;0.63;;;;;;;;;;5010019;28;20026;-69
2024/01/30 02:42:18;;;;;;;1.00;0.60;;;;;;;;;;5019667;28;20542;-69
2024/01/30 02:44:43;;;;;;;1.08;0.30;;;;;;;;;;5011665;28;20038;-67
2024/01/30 02:47:08;;;;;;;0.57;0.40;;;;;;;;;;5002177;28;20658;-67
2024/01/30 02:49:34;;;;;;;0.40;0.38;;;;;;;;;;5013423;28;20038;-67
2024/01/30 02:51:59;;;;;;;3.70;0.20;;;;;;;;;;5021275;28;20041;-67
2024/01/30 02:54:24;;;;;;;0.98;0.50;;;;;;;;;;5015923;28;20026;-67
2024/01/30 02:56:50;;;;;;;0.60;0.40;;;;;;;;;;5024977;28;20042;-67
2024/01/30 02:59:15;;;;;;;0.73;0.43;;;;;;;;;;5017220;28;20041;-67
2024/01/30 03:01:44;;;;;;;0.95;0.50;;;;;;;;;;5017033;28;20092;-66
2024/01/30 03:04:10;;;;;;;1.38;0.50;;;;;;;;;;5008242;28;20042;-67
2024/01/30 03:06:35;;;;;;;3.03;0.65;;;;;;;;;;5006943;28;20041;-67
2024/01/30 03:09:00;;;;;;;0.77;0.52;;;;;;;;;;5014812;28;20477;-66
2024/01/30 03:11:26;;;;;;;1.10;0.45;;;;;;;;;;5017225;28;20771;-67
2024/01/30 03:13:51;;;;;;;2.35;0.80;;;;;;;;;;5015956;28;20120;-67
2024/01/30 03:16:16;;;;;;;2.03;0.68;;;;;;;;;;5017354;28;20115;-67
2024/01/30 03:18:42;;;;;;;1.17;0.57;;;;;;;;;;5018875;28;20681;-67
2024/01/30 03:21:07;;;;;;;1.30;0.63;;;;;;;;;;5006154;28;20042;-68
2024/01/30 03:23:32;;;;;;;0.82;0.60;;;;;;;;;;5017870;28;20030;-66
2024/01/30 03:25:58;;;;;;;1.98;0.82;;;;;;;;;;5013852;28;20034;-67
2024/01/30 03:28:23;;;;;;;2.85;0.80;;;;;;;;;;5017449;28;20038;-67
2024/01/30 03:30:49;;;;;;;2.50;0.82;;;;;;;;;;5016026;28;20034;-67
2024/01/30 03:33:14;;;;;;;1.33;0.52;;;;;;;;;;5020820;28;20052;-67
2024/01/30 03:35:39;;;;;;;1.35;0.50;;;;;;;;;;5015305;28;20042;-67
2024/01/30 03:38:05;;;;;;;0.82;0.30;;;;;;;;;;5013900;28;20045;-67
2024/01/30 03:40:30;;;;;;;0.70;0.43;;;;;;;;;;5010775;28;20046;-66
2024/01/30 03:42:55;;;;;;;0.50;0.40;;;;;;;;;;5024319;28;20033;-67
2024/01/30 03:45:21;;;;;;;0.28;0.20;;;;;;;;;;5012859;28;20558;-67
2024/01/30 03:47:46;;;;;;;1.58;0.30;;;;;;;;;;5023075;28;20538;-67
2024/01/30 03:50:11;;;;;;;0.88;0.40;;;;;;;;;;5006389;28;20046;-66
2024/01/30 03:52:37;;;;;;;1.50;0.40;;;;;;;;;;5017961;28;20033;-67
2024/01/30 03:55:02;;;;;;;2.67;0.50;;;;;;;;;;5019564;28;20491;-67
2024/01/30 03:57:28;;;;;;;0.88;0.45;;;;;;;;;;5024277;28;20481;-67
2024/01/30 03:59:54;;;;;;;0.70;0.50;;;;;;;;;;5017313;28;20034;-67
2024/01/30 04:02:19;;;;;;;0.63;0.35;;;;;;;;;;5020318;28;20396;-68
2024/01/30 04:04:44;;;;;;;1.15;0.50;;;;;;;;;;5013640;28;20042;-67
2024/01/30 04:07:09;;;;;;;0.52;0.52;;;;;;;;;;5017710;28;20053;-67
2024/01/30 04:09:35;;;;;;;1.27;0.40;;;;;;;;;;5015395;28;20529;-67
2024/01/30 04:12:02;;;;;;;1.95;0.70;;;;;;;;;;5019198;28;20509;-67
2024/01/30 04:14:28;;;;;;;1.50;0.80;;;;;;;;;;5013406;28;20030;-67
2024/01/30 04:16:53;;;;;;;1.58;0.55;;;;;;;;;;5009980;28;20511;-67
2024/01/30 04:19:18;;;;;;;1.50;0.68;;;;;;;;;;5024971;28;20042;-67
2024/01/30 04:21:44;;;;;;;2.92;0.63;;;;;;;;;;5015609;28;20364;-67
2024/01/30 04:24:09;;;;;;;2.35;0.55;;;;;;;;;;5017188;28;20131;-67
2024/01/30 04:26:36;;;;;;;0.85;0.30;;;;;;;;;;5015253;28;20044;-67
2024/01/30 04:29:01;;;;;;;1.80;0.57;;;;;;;;;;5012276;28;20539;-67
2024/01/30 04:31:27;;;;;;;0.20;0.20;;;;;;;;;;5019633;28;20045;-67
2024/01/30 04:33:52;;;;;;;1.48;0.40;;;;;;;;;;5015124;28;20108;-67
2024/01/30 04:36:17;;;;;;;3.70;0.30;;;;;;;;;;5021019;28;20030;-67
2024/01/30 04:38:43;;;;;;;1.33;0.50;;;;;;;;;;5016083;28;20038;-67
2024/01/30 04:41:08;;;;;;;1.02;0.43;;;;;;;;;;5016216;28;20084;-67
2024/01/30 04:43:33;;;;;;;1.02;0.47;;;;;;;;;;5022117;28;20037;-68
2024/01/30 04:45:59;;;;;;;0.60;0.40;;;;;;;;;;5027892;28;20510;-67
2024/01/30 04:48:24;;;;;;;1.35;0.40;;;;;;;;;;5015288;28;20452;-68
2024/01/30 04:50:49;;;;;;;0.93;0.70;;;;;;;;;;5006577;28;20469;-68
2024/01/30 04:53:14;;;;;;;2.83;0.45;;;;;;;;;;5023159;28;20053;-68
2024/01/30 04:55:40;;;;;;;1.27;0.40;;;;;;;;;;5027069;28;20366;-67
2024/01/30 04:58:05;;;;;;;0.32;0.20;;;;;;;;;;5028257;28;20488;-67
2024/01/30 05:00:30;;;;;;;2.33;0.40;;;;;;;;;;5013632;28;20041;-67
2024/01/30 05:02:56;;;;;;;1.70;0.50;;;;;;;;;;5027176;28;20057;-67
2024/01/30 05:05:21;;;;;;;4.03;0.50;;;;;;;;;;5017790;28;20037;-67
2024/01/30 05:07:47;;;;;;;0.47;0.30;;;;;;;;;;5023268;28;20096;-67
2024/01/30 05:10:12;;;;;;;4.55;0.50;;;;;;;;;;5011266;28;20041;-67
2024/01/30 05:12:39;;;;;;;1.27;0.40;;;;;;;;;;5018677;28;20034;-67
2024/01/30 05:15:04;;;;;;;1.70;1.05;;;;;;;;;;5011283;28;20034;-67
2024/01/30 05:17:30;;;;;;;0.68;0.40;;;;;;;;;;5011952;28;20065;-67
2024/01/30 05:19:55;;;;;;;1.88;0.77;;;;;;;;;;5018724;28;20029;-67
2024/01/30 05:22:20;;;;;;;1.20;0.55;;;;;;;;;;5012977;28;20044;-67
2024/01/30 05:24:46;;;;;;;2.45;0.63;;;;;;;;;;5027563;28;20059;-67
2024/01/30 05:27:13;;;;;;;3.60;0.70;;;;;;;;;;5029766;28;20037;-66
2024/01/30 05:29:38;;;;;;;1.20;0.75;;;;;;;;;;5019864;28;20149;-67
2024/01/30 05:32:05;;;;;;;3.38;1.10;;;;;;;;;;5022245;28;20180;-66
2024/01/30 05:34:30;;;;;;;3.35;0.93;;;;;;;;;;5014067;28;20034;-67
2024/01/30 05:36:56;;;;;;;1.33;0.60;;;;;;;;;;5011724;28;20116;-67
2024/01/30 05:39:21;;;;;;;3.55;0.60;;;;;;;;;;5017248;28;20120;-67
2024/01/30 05:41:46;;;;;;;5.60;0.70;;;;;;;;;;5024737;28;20022;-67
2024/01/30 05:44:12;;;;;;;1.10;0.57;;;;;;;;;;5024792;28;20084;-67
2024/01/30 05:46:37;;;;;;;0.50;0.50;;;;;;;;;;5022257;28;20041;-67
2024/01/30 05:49:03;;;;;;;2.50;0.88;;;;;;;;;;5007669;28;20046;-66
2024/01/30 05:51:28;;;;;;;2.20;0.50;;;;;;;;;;4998726;28;20042;-68
2024/01/30 05:53:54;;;;;;;2.70;0.80;;;;;;;;;;5023199;28;20516;-66
2024/01/30 05:56:19;;;;;;;2.15;0.85;;;;;;;;;;5026501;28;20490;-67
2024/01/30 05:58:44;;;;;;;1.63;0.57;;;;;;;;;;5008697;28;20045;-67
2024/01/30 06:01:10;;;;;;;1.05;0.60;;;;;;;;;;5014714;28;20045;-66
2024/01/30 06:03:35;;;;;;;3.65;0.60;;;;;;;;;;5029976;28;20140;-67
2024/01/30 06:06:01;;;;;;;5.07;0.57;;;;;;;;;;5013065;28;20049;-66
2024/01/30 06:08:26;;;;;;;1.30;0.47;;;;;;;;;;5027458;28;20037;-68
2024/01/30 06:10:52;;;;;;;0.80;0.50;;;;;;;;;;5013693;28;20113;-68
2024/01/30 06:13:17;;;;;;;2.90;0.50;;;;;;;;;;5021605;28;20488;-68
2024/01/30 06:15:42;;;;;;;2.00;0.47;;;;;;;;;;4988045;28;20045;-67
2024/01/30 06:18:08;;;;;;;0.82;0.30;;;;;;;;;;5021773;28;20053;-67
2024/01/30 06:20:35;;;;;;;5.50;0.98;;;;;;;;;;5014888;28;20104;-67
2024/01/30 06:23:00;;;;;;;0.77;0.30;;;;;;;;;;5022348;28;20424;-67
2024/01/30 06:25:26;;;;;;;1.30;0.60;;;;;;;;;;5015244;28;20070;-67
2024/01/30 06:27:51;;;;;;;5.05;0.90;;;;;;;;;;5014506;28;20060;-67
2024/01/30 06:30:16;;;;;;;1.40;0.85;;;;;;;;;;5010820;28;20121;-68
2024/01/30 06:32:42;;;;;;;2.83;0.70;;;;;;;;;;5019111;28;20112;-67
2024/01/30 06:35:08;;;;;;;0.70;0.40;;;;;;;;;;4999107;28;20088;-67
2024/01/30 06:37:33;;;;;;;0.73;0.40;;;;;;;;;;5022157;28;20052;-67
2024/01/30 06:39:58;;;;;;;0.73;0.50;;;;;;;;;;5011600;28;20057;-67
2024/01/30 06:42:24;;;;;;;1.63;0.43;;;;;;;;;;5017512;28;20038;-67
2024/01/30 06:44:49;;;;;;;0.75;0.43;;;;;;;;;;5017647;28;20120;-67
2024/01/30 06:47:14;;;;;;;0.73;0.38;;;;;;;;;;5021528;28;20040;-67
2024/01/30 06:49:41;;;;;;;0.50;0.30;;;;;;;;;;5019666;28;20037;-67
2024/01/30 06:52:07;;;;;;;2.28;0.70;;;;;;;;;;5022329;28;20048;-67
2024/01/30 06:54:33;;;;;;;4.28;0.60;;;;;;;;;;5014763;28;20029;-69
2024/01/30 06:56:58;;;;;;;3.20;0.40;;;;;;;;;;5014735;28;20026;-69
2024/01/30 06:59:24;;;;;;;0.43;0.30;;;;;;;;;;5007071;28;20057;-69
2024/01/30 07:01:49;;;;;;;0.32;0.28;;;;;;;;;;5013831;28;20026;-69
2024/01/30 07:04:15;;;;;;;1.08;0.47;;;;;;;;;;5017158;28;20038;-69
2024/01/30 07:06:41;;;;;;;3.08;0.93;;;;;;;;;;5017465;28;20042;-69
2024/01/30 07:09:06;;;;;;;3.35;0.30;;;;;;;;;;5017614;28;20045;-69
2024/01/30 07:11:32;;;;;;;1.75;0.77;;;;;;;;;;5013792;28;20053;-69
2024/01/30 07:13:57;;;;;;;0.68;0.40;;;;;;;;;;5015828;28;20108;-70
2024/01/30 07:16:23;;;;;;;1.55;0.50;;;;;;;;;;5021133;28;20061;-70
2024/01/30 07:18:48;;;;;;;1.83;0.55;;;;;;;;;;5019944;28;20077;-70
2024/01/30 07:21:14;;;;;;;4.75;0.55;;;;;;;;;;5012193;28;20128;-70
2024/01/30 07:23:41;;;;;;;2.10;0.60;;;;;;;;;;5021261;28;20034;-69
2024/01/30 07:26:08;;;;;;;0.70;0.40;;;;;;;;;;5023807;28;20045;-69
2024/01/30 07:28:34;;;;;;;3.10;0.52;;;;;;;;;;5019893;28;20090;-70
2024/01/30 07:30:59;;;;;;;2.22;0.40;;;;;;;;;;4991242;28;20034;-69
2024/01/30 07:33:24;;;;;;;0.77;0.45;;;;;;;;;;5020391;28;20037;-70
2024/01/30 07:35:52;;;;;;;0.93;0.50;;;;;;;;;;5018537;28;20393;-68
2024/01/30 07:38:17;;;;;;;5.63;0.70;;;;;;;;;;4995883;28;20037;-67
2024/01/30 07:40:43;;;;;;;1.95;0.63;;;;;;;;;;5017616;28;20048;-67
2024/01/30 07:43:09;;;;;;;2.70;0.75;;;;;;;;;;5018422;28;20042;-67
2024/01/30 07:45:34;;;;;;;2.17;0.80;;;;;;;;;;5009074;28;20040;-67
2024/01/30 07:47:59;;;;;;;3.78;0.50;;;;;;;;;;5031438;28;20049;-68
2024/01/30 07:50:25;;;;;;;1.45;0.50;;;;;;;;;;5017787;28;20061;-67
2024/01/30 07:52:54;;;;;;;7.05;0.70;;;;;;;;;;5023743;28;20381;-68
2024/01/30 07:55:20;;;;;;;1.40;0.45;;;;;;;;;;5018269;28;20096;-67
2024/01/30 07:57:46;;;;;;;0.65;0.40;;;;;;;;;;5012508;28;20038;-67
2024/01/30 08:00:12;;;;;;;1.08;0.35;;;;;;;;;;5007402;28;20036;-70
2024/01/30 08:02:37;;;;;;;0.73;0.43;;;;;;;;;;5009809;28;20125;-69
2024/01/30 08:05:02;;;;;;;2.90;0.57;;;;;;;;;;5017034;28;20539;-71
2024/01/30 08:07:29;;;;;;;1.05;0.52;;;;;;;;;;5013626;28;20048;-70
2024/01/30 08:09:55;;;;;;;0.30;0.30;;;;;;;;;;5015823;28;20046;-68
2024/01/30 08:12:20;;;;;;;0.82;0.38;;;;;;;;;;5017461;28;20038;-69
2024/01/30 08:14:45;;;;;;;0.68;0.38;;;;;;;;;;5009967;28;20034;-69
2024/01/30 08:17:11;;;;;;;1.70;0.50;;;;;;;;;;5018420;28;20071;-68
2024/01/30 08:19:36;;;;;;;2.20;0.50;;;;;;;;;;5021427;28;20042;-67
2024/01/30 08:22:01;;;;;;;1.35;0.75;;;;;;;;;;5020868;28;20110;-66
2024/01/30 08:24:26;;;;;;;2.05;0.40;;;;;;;;;;5026334;28;20124;-67
2024/01/30 08:26:52;;;;;;;4.75;0.50;;;;;;;;;;5013477;28;20042;-67
2024/01/30 08:29:17;;;;;;;4.75;0.52;;;;;;;;;;5014405;28;20033;-66
2024/01/30 08:31:43;;;;;;;6.45;0.50;;;;;;;;;;5001103;28;20029;-67
2024/01/30 08:34:09;;;;;;;0.43;0.28;;;;;;;;;;5013291;28;20065;-67
2024/01/30 08:36:34;;;;;;;0.82;0.40;;;;;;;;;;5020329;28;20560;-68
2024/01/30 08:39:00;;;;;;;2.42;0.70;;;;;;;;;;4993280;28;20525;-67
2024/01/30 08:41:25;;;;;;;1.02;0.50;;;;;;;;;;5014764;28;20033;-67
2024/01/30 08:43:52;;;;;;;1.05;0.50;;;;;;;;;;5014708;28;20037;-67
2024/01/30 08:46:20;;;;;;;1.23;0.50;;;;;;;;;;5014928;28;20117;-67
2024/01/30 08:48:46;;;;;;;0.68;0.40;;;;;;;;;;5020467;28;20069;-66
2024/01/30 08:51:12;;;;;;;1.83;0.45;;;;;;;;;;5015330;28;20037;-66
2024/01/30 08:53:37;;;;;;;0.30;0.30;;;;;;;;;;5023593;28;20036;-67
2024/01/30 08:56:03;;;;;;;0.80;0.47;;;;;;;;;;5022700;28;20031;-69
2024/01/30 08:58:29;;;;;;;0.68;0.50;;;;;;;;;;5016391;28;20162;-69
2024/01/30 09:00:54;;;;;;;0.40;0.40;;;;;;;;;;5024124;28;20116;-69
2024/01/30 09:03:20;;;;;;;2.55;0.55;;;;;;;;;;5023142;28;20060;-68
2024/01/30 09:05:45;;;;;;;1.52;0.30;;;;;;;;;;5016691;28;20033;-69
2024/01/30 09:08:10;;;;;;;3.63;0.40;;;;;;;;;;5024235;28;20045;-69
2024/01/30 09:10:36;;;;;;;0.45;0.30;;;;;;;;;;5022301;28;20041;-69
2024/01/30 09:13:03;;;;;;;0.25;0.20;;;;;;;;;;5025990;28;20029;-69
2024/01/30 09:15:28;;;;;;;1.52;0.43;;;;;;;;;;5028889;28;20037;-69
2024/01/30 09:17:53;;;;;;;0.75;0.38;;;;;;;;;;5016950;28;20056;-69
2024/01/30 09:20:20;;;;;;;0.38;0.28;;;;;;;;;;5016577;28;20072;-70
2024/01/30 09:22:45;;;;;;;6.72;0.70;;;;;;;;;;5012885;28;20038;-69
2024/01/30 09:25:11;;;;;;;2.40;0.45;;;;;;;;;;5016052;28;20032;-69
2024/01/30 09:27:36;;;;;;;0.35;0.28;;;;;;;;;;5004538;28;20056;-69
2024/01/30 09:30:01;;;;;;;0.43;0.30;;;;;;;;;;5021222;28;20037;-69
2024/01/30 09:32:26;;;;;;;2.60;0.40;;;;;;;;;;5022321;28;20069;-69
2024/01/30 09:34:52;;;;;;;0.60;0.28;;;;;;;;;;5024959;28;20031;-69
2024/01/30 09:37:18;;;;;;;2.38;0.40;;;;;;;;;;5024667;28;20041;-69
2024/01/30 09:39:43;;;;;;;1.00;0.35;;;;;;;;;;5025636;28;20095;-69
2024/01/30 09:42:28;;;;;;;1.80;0.30;;;;;;;;;;5024011;28;20288;-68
2024/01/30 09:44:54;;;;;;;1.95;0.40;;;;;;;;;;5017519;28;20034;-69
2024/01/30 09:47:19;;;;;;;0.55;0.40;;;;;;;;;;5027608;28;20027;-69
2024/01/30 09:49:45;;;;;;;3.05;0.52;;;;;;;;;;5017340;28;20033;-69
2024/01/30 09:52:11;;;;;;;0.90;0.50;;;;;;;;;;5007007;28;20536;-69
2024/01/30 09:54:38;;;;;;;0.25;0.25;;;;;;;;;;5020822;28;20080;-70
2024/01/30 09:57:04;;;;;;;1.35;0.68;;;;;;;;;;5006942;28;20038;-68
2024/01/30 09:59:30;;;;;;;0.30;0.30;;;;;;;;;;5018261;28;20048;-69
2024/01/30 10:01:56;;;;;;;0.38;0.30;;;;;;;;;;5009567;28;20029;-69
2024/01/30 10:04:22;;;;;;;0.60;0.40;;;;;;;;;;4969108;28;20485;-69
2024/01/30 10:06:47;;;;;;;1.52;0.47;;;;;;;;;;5005753;28;20048;-70
2024/01/30 10:09:13;;;;;;;1.75;0.40;;;;;;;;;;5001632;28;20029;-69
2024/01/30 10:11:39;;;;;;;1.00;0.50;;;;;;;;;;5009480;28;20525;-70
2024/01/30 10:14:04;;;;;;;1.23;0.25;;;;;;;;;;5010648;28;20125;-70
2024/01/30 10:16:29;;;;;;;0.43;0.30;;;;;;;;;;5006033;28;20977;-69
2024/01/30 10:18:55;;;;;;;0.30;0.30;;;;;;;;;;5014692;28;20030;-69
2024/01/30 10:21:21;;;;;;;0.55;0.30;;;;;;;;;;5009763;28;20092;-70
2024/01/30 10:23:46;;;;;;;1.27;0.30;;;;;;;;;;5011760;28;20101;-70
2024/01/30 10:26:11;;;;;;;0.32;0.30;;;;;;;;;;5009756;28;20169;-70
2024/01/30 10:28:37;;;;;;;0.55;0.32;;;;;;;;;;5010632;28;20038;-69
2024/01/30 10:31:05;;;;;;;0.20;0.20;;;;;;;;;;5010177;28;20817;-69
2024/01/30 10:33:31;;;;;;;1.08;0.38;;;;;;;;;;5010920;28;20034;-69
2024/01/30 10:36:04;;;;;;;0.43;0.20;;;;;;;;;;5010880;28;20425;-69
2024/01/30 10:38:30;;;;;;;0.28;0.28;;;;;;;;;;5004028;28;20025;-69
2024/01/30 10:41:00;;;;;;;1.40;0.40;;;;;;;;;;5009205;28;20033;-71
2024/01/30 10:43:36;;;;;;;0.88;0.40;;;;;;;;;;4995151;28;20532;-69
2024/01/30 10:46:12;;;;;;;0.20;0.20;;;;;;;;;;5001054;28;20034;-69
2024/01/30 10:48:42;;;;;;;0.30;0.30;;;;;;;;;;5010884;28;20044;-70
2024/01/30 10:51:09;;;;;;;0.65;0.40;;;;;;;;;;4999288;28;20041;-69
2024/01/30 10:53:35;;;;;;;0.20;0.20;;;;;;;;;;5011645;28;20033;-70
2024/01/30 10:56:01;;;;;;;0.22;0.22;;;;;;;;;;5015460;28;20400;-69
2024/01/30 10:58:26;;;;;;;0.30;0.30;;;;;;;;;;4996370;28;20536;-70
2024/01/30 11:00:52;;;;;;;0.85;0.55;;;;;;;;;;5015286;28;20072;-69
2024/01/30 11:03:18;;;;;;;0.57;0.35;;;;;;;;;;4998136;28;20045;-69
2024/01/30 11:05:49;;;;;;;0.30;0.30;;;;;;;;;;4992251;28;20128;-69
2024/01/30 11:08:14;;;;;;;3.45;0.40;;;;;;;;;;5003857;28;20540;-70
2024/01/30 11:10:47;;;;;;;0.35;0.30;;;;;;;;;;5012830;28;20094;-69
2024/01/30 11:13:14;;;;;;;0.73;0.40;;;;;;;;;;5021322;28;20645;-69
2024/01/30 11:15:40;;;;;;;0.30;0.30;;;;;;;;;;5008222;28;20636;-69
2024/01/30 11:18:05;;;;;;;1.80;0.35;;;;;;;;;;5015839;28;20091;-70
2024/01/30 11:20:32;;;;;;;0.22;0.22;;;;;;;;;;5009449;28;20037;-68
2024/01/30 11:22:58;;;;;;;0.52;0.30;;;;;;;;;;5012197;28;20148;-71
2024/01/30 11:25:24;;;;;;;0.22;0.22;;;;;;;;;;5027551;28;20724;-71
2024/01/30 11:27:51;;;;;;;0.47;0.30;;;;;;;;;;5020914;28;20026;-69
2024/01/30 11:30:26;;;;;;;0.20;0.20;;;;;;;;;;5028654;28;20487;-69
2024/01/30 11:33:29;;;;;;;0.25;0.20;;;;;;;;;;5022727;28;20050;-69
2024/01/30 11:35:57;;;;;;;0.30;0.30;;;;;;;;;;4998855;28;20046;-69
2024/01/30 11:38:23;;;;;;;0.60;0.30;;;;;;;;;;5028498;28;20045;-69
2024/01/30 11:40:48;;;;;;;0.52;0.30;;;;;;;;;;5025309;28;20037;-69
2024/01/30 11:43:13;;;;;;;0.38;0.30;;;;;;;;;;5017700;28;20032;-69
2024/01/30 11:45:39;;;;;;;0.20;0.20;;;;;;;;;;5020725;28;20553;-69
2024/01/30 11:48:05;;;;;;;0.20;0.20;;;;;;;;;;5022721;28;20490;-70
2024/01/30 11:50:33;;;;;;;0.20;0.20;;;;;;;;;;5019573;28;20061;-70
2024/01/30 11:52:59;;;;;;;0.43;0.30;;;;;;;;;;5025305;28;20033;-70
2024/01/30 11:55:25;;;;;;;0.95;0.32;;;;;;;;;;5019522;28;20030;-69
2024/01/30 11:57:50;;;;;;;0.30;0.30;;;;;;;;;;5013477;28;20033;-69
2024/01/30 12:00:18;;;;;;;0.30;0.30;;;;;;;;;;5008166;28;20049;-69
2024/01/30 12:02:44;;;;;;;0.20;0.20;;;;;;;;;;5024765;28;20393;-70
2024/01/30 12:05:10;;;;;;;0.30;0.30;;;;;;;;;;5020310;28;20037;-69
2024/01/30 12:07:35;;;;;;;0.85;0.52;;;;;;;;;;5018117;28;20120;-69
2024/01/30 12:10:01;;;;;;;0.50;0.50;;;;;;;;;;4996469;28;20726;-69
2024/01/30 12:12:27;;;;;;;0.30;0.30;;;;;;;;;;5012608;28;20038;-70
2024/01/30 12:14:53;;;;;;;0.30;0.30;;;;;;;;;;4992110;28;20689;-69
2024/01/30 12:17:32;;;;;;;0.40;0.30;;;;;;;;;;5018981;28;20049;-71
2024/01/30 12:20:09;;;;;;;0.20;0.20;;;;;;;;;;4998825;28;20056;-70
2024/01/30 12:22:42;;;;;;;0.52;0.25;;;;;;;;;;5012791;28;20065;-69
2024/01/30 12:25:12;;;;;;;3.53;0.45;;;;;;;;;;4992449;28;20038;-69
2024/01/30 12:27:38;;;;;;;0.35;0.30;;;;;;;;;;5012230;28;20040;-69
2024/01/30 12:30:08;;;;;;;0.45;0.30;;;;;;;;;;5023731;28;20069;-69
2024/01/30 12:32:37;;;;;;;2.50;0.40;;;;;;;;;;5000404;28;20045;-69
2024/01/30 12:35:06;;;;;;;0.30;0.28;;;;;;;;;;5002624;28;20132;-69
2024/01/30 12:37:31;;;;;;;0.85;0.43;;;;;;;;;;5019280;28;20026;-69
2024/01/30 12:39:57;;;;;;;0.52;0.47;;;;;;;;;;4972380;28;20373;-69
2024/01/30 12:42:22;;;;;;;0.30;0.30;;;;;;;;;;4977490;28;20489;-69
2024/01/30 12:44:48;;;;;;;0.30;0.30;;;;;;;;;;5001694;28;20033;-70
2024/01/30 12:47:16;;;;;;;0.40;0.40;;;;;;;;;;4993888;28;20038;-70
2024/01/30 12:49:44;;;;;;;1.33;0.40;;;;;;;;;;5003115;28;20936;-69
2024/01/30 12:52:10;;;;;;;0.60;0.40;;;;;;;;;;4991792;28;20382;-71
2024/01/30 12:54:35;;;;;;;0.73;0.35;;;;;;;;;;4986339;28;20073;-69
2024/01/30 12:57:01;;;;;;;0.30;0.30;;;;;;;;;;5003092;28;20065;-70
2024/01/30 12:59:26;;;;;;;0.35;0.32;;;;;;;;;;5006566;28;20055;-69
2024/01/30 13:01:52;;;;;;;0.60;0.30;;;;;;;;;;5015402;28;20160;-70
2024/01/30 13:04:17;;;;;;;0.38;0.35;;;;;;;;;;5013248;28;20042;-70
2024/01/30 13:06:42;;;;;;;0.90;0.40;;;;;;;;;;5009450;28;20038;-69
2024/01/30 13:09:08;;;;;;;0.75;0.40;;;;;;;;;;5010324;28;20038;-69
2024/01/30 13:11:34;;;;;;;0.30;0.30;;;;;;;;;;5007758;28;20493;-69
2024/01/30 13:13:59;;;;;;;3.90;0.50;;;;;;;;;;5011065;28;20152;-69
2024/01/30 13:16:25;;;;;;;0.65;0.30;;;;;;;;;;5004092;28;20129;-69
2024/01/30 13:18:50;;;;;;;0.55;0.35;;;;;;;;;;5011691;28;20038;-69
2024/01/30 13:21:17;;;;;;;1.15;0.47;;;;;;;;;;5008317;28;20058;-69
2024/01/30 13:23:42;;;;;;;0.85;0.40;;;;;;;;;;5015832;28;20061;-70
2024/01/30 13:26:08;;;;;;;1.83;0.55;;;;;;;;;;4993188;28;20045;-69
2024/01/30 13:28:33;;;;;;;1.05;0.50;;;;;;;;;;5008055;28;20461;-70
2024/01/30 13:30:58;;;;;;;1.83;0.77;;;;;;;;;;5011842;28;20045;-70
2024/01/30 13:33:24;;;;;;;2.22;1.20;;;;;;;;;;5009869;28;20038;-70
2024/01/30 13:35:49;;;;;;;1.50;0.82;;;;;;;;;;5016728;28;20472;-71
2024/01/30 13:38:15;;;;;;;1.55;0.80;;;;;;;;;;5010831;28;20693;-69
2024/01/30 13:40:41;;;;;;;2.35;0.90;;;;;;;;;;4987984;28;20037;-69
2024/01/30 13:43:06;;;;;;;2.53;1.30;;;;;;;;;;5010304;28;20045;-69
2024/01/30 13:45:31;;;;;;;2.75;1.02;;;;;;;;;;5006615;28;20108;-69
2024/01/30 13:47:57;;;;;;;2.15;0.90;;;;;;;;;;5005822;28;20042;-70
2024/01/30 13:50:22;;;;;;;2.50;1.00;;;;;;;;;;5003143;28;20037;-69
2024/01/30 13:52:48;;;;;;;1.95;1.00;;;;;;;;;;5010163;28;20045;-70
2024/01/30 13:55:13;;;;;;;2.78;1.30;;;;;;;;;;5006080;28;20047;-70
2024/01/30 13:57:39;;;;;;;9.38;1.45;;;;;;;;;;4997673;28;20116;-70
2024/01/30 14:00:07;;;;;;;3.10;1.50;;;;;;;;;;5008766;28;20133;-71
2024/01/30 14:02:33;;;;;;;4.18;1.60;;;;;;;;;;4988874;28;20022;-69
2024/01/30 14:04:58;;;;;;;6.40;1.67;;;;;;;;;;5001072;28;20292;-69
2024/01/30 14:07:23;;;;;;;3.83;1.75;;;;;;;;;;5002742;28;20092;-70
2024/01/30 14:09:49;;;;;;;3.65;1.75;;;;;;;;;;5001447;28;20046;-69
2024/01/30 14:12:14;;;;;;;2.88;1.40;;;;;;;;;;5009624;28;21318;-70
2024/01/30 14:14:40;;;;;;;3.03;1.30;;;;;;;;;;5017767;28;20049;-69
2024/01/30 14:17:06;;;;;;;3.33;1.30;;;;;;;;;;5017168;28;20046;-69
2024/01/30 14:19:33;;;;;;;3.20;1.40;;;;;;;;;;5020192;28;20467;-70
2024/01/30 14:21:58;;;;;;;4.40;1.33;;;;;;;;;;4992655;28;20065;-70
2024/01/30 14:24:23;;;;;;;2.95;1.20;;;;;;;;;;5020272;28;20473;-70
2024/01/30 14:26:49;;;;;;;2.75;1.10;;;;;;;;;;5008530;28;20026;-71
2024/01/30 14:29:14;;;;;;;3.47;1.48;;;;;;;;;;4984485;28;20041;-69
2024/01/30 14:31:39;;;;;;;3.47;0.98;;;;;;;;;;5005745;28;20035;-70
2024/01/30 14:34:05;;;;;;;2.50;1.00;;;;;;;;;;5003848;28;20065;-70
2024/01/30 14:36:31;;;;;;;1.95;1.10;;;;;;;;;;5016615;28;20045;-69